Time;durP1;ratioP1;P1;durP2;ratioP2;P2;SDS_P1;SDS_P2;PMS_P1;PMS_P2;Temp;Humidity;BMP_temperature;BMP_pressure;BME280_temperature;BME280_humidity;BME280_pressure;Samples;Min_cycle;Max_cycle;Signal;HPM_P1;HPM_P2
2021/11/01 00:02:18;;;;;;;22.13;3.43;;;;;;;20.77;100.00;99621.56;4938645;29;20047;-53
2021/11/01 00:04:44;;;;;;;33.00;3.72;;;;;;;19.72;100.00;99612.22;4936623;29;20028;-51
2021/11/01 00:07:14;;;;;;;17.45;4.40;;;;;;;19.61;100.00;99608.81;4936896;29;20589;-51
2021/11/01 00:09:40;;;;;;;23.33;4.17;;;;;;;20.20;100.00;99608.72;4936799;29;20046;-55
2021/11/01 00:12:06;;;;;;;24.23;4.53;;;;;;;20.69;100.00;99619.50;4937197;29;20342;-53
2021/11/01 00:14:31;;;;;;;23.08;4.18;;;;;;;20.12;100.00;99619.41;4938162;29;20051;-52
2021/11/01 00:16:57;;;;;;;20.38;3.50;;;;;;;20.38;100.00;99611.78;4920570;29;20473;-53
2021/11/01 00:19:24;;;;;;;26.55;4.72;;;;;;;20.82;100.00;99622.63;4936520;29;20039;-53
2021/11/01 00:21:50;;;;;;;26.30;4.33;;;;;;;20.99;100.00;99614.75;4936270;29;20389;-54
2021/11/01 00:24:16;;;;;;;19.08;4.00;;;;;;;20.30;100.00;99609.72;4936402;29;20792;-52
2021/11/01 00:26:41;;;;;;;19.48;4.00;;;;;;;20.30;100.00;99623.28;4936209;29;20044;-52
2021/11/01 00:29:07;;;;;;;31.80;4.15;;;;;;;20.82;100.00;99622.63;4935044;29;20043;-55
2021/11/01 00:31:34;;;;;;;27.27;4.15;;;;;;;20.43;100.00;99616.34;4936378;29;20047;-54
2021/11/01 00:34:00;;;;;;;28.33;5.87;;;;;;;20.40;100.00;99623.16;4919388;29;20071;-51
2021/11/01 00:36:26;;;;;;;16.52;3.97;;;;;;;19.71;100.00;99612.50;4918829;29;20704;-53
2021/11/01 00:38:52;;;;;;;28.50;4.10;;;;;;;20.12;100.00;99632.97;4918722;29;20040;-54
2021/11/01 00:41:18;;;;;;;23.58;4.40;;;;;;;19.91;100.00;99616.91;4935680;29;20088;-53
2021/11/01 00:43:43;;;;;;;19.05;3.22;;;;;;;20.41;100.00;99611.19;4902915;29;20059;-50
2021/11/01 00:46:09;;;;;;;20.33;4.30;;;;;;;20.08;100.00;99602.09;4935585;29;20052;-53
2021/11/01 00:48:34;;;;;;;17.15;3.15;;;;;;;20.55;100.00;99603.13;4918571;29;20040;-54
2021/11/01 00:51:00;;;;;;;22.52;3.85;;;;;;;20.11;100.00;99599.63;4918416;29;20036;-54
2021/11/01 00:53:31;;;;;;;20.67;3.60;;;;;;;20.27;100.00;99607.56;4935724;29;20054;-53
2021/11/01 00:55:58;;;;;;;16.83;2.90;;;;;;;19.66;100.00;99599.00;4918484;29;20138;-55
2021/11/01 00:58:24;;;;;;;;;;;;;;;19.52;100.00;99604.28;4938367;29;20270;-54
2021/11/01 01:00:50;;;;;;;21.17;3.33;;;;;;;20.17;100.00;99595.72;4939569;29;19950;-53
2021/11/01 01:03:17;;;;;;;18.02;3.10;;;;;;;20.25;100.00;99593.47;4922266;29;20290;-52
2021/11/01 01:05:43;;;;;;;19.23;4.65;;;;;;;19.98;100.00;99592.16;4922570;29;20032;-55
2021/11/01 01:08:13;;;;;;;13.30;3.00;;;;;;;20.34;100.00;99595.25;4906967;29;20457;-52
2021/11/01 01:10:40;;;;;;;17.40;3.10;;;;;;;20.00;100.00;99579.13;4939707;29;20313;-54
2021/11/01 01:13:06;;;;;;;13.32;3.78;;;;;;;20.13;100.00;99592.00;4939557;29;20270;-53
2021/11/01 01:15:43;;;;;;;15.15;3.08;;;;;;;19.68;100.00;99575.91;4922236;29;20589;-53
2021/11/01 01:18:14;;;;;;;24.63;3.67;;;;;;;19.68;100.00;99585.94;4937896;29;20048;-56
2021/11/01 01:20:40;;;;;;;25.50;3.63;;;;;;;19.43;100.00;99583.19;4939717;29;20035;-54
2021/11/01 01:23:06;;;;;;;22.08;3.70;;;;;;;18.92;100.00;99576.28;4939162;29;20612;-53
2021/11/01 01:25:47;;;;;;;16.95;2.35;;;;;;;18.97;100.00;99580.84;4922873;29;20039;-56
2021/11/01 01:28:15;;;;;;;6.70;2.70;;;;;;;19.20;100.00;99577.44;4937976;29;20486;-55
2021/11/01 01:30:41;;;;;;;15.80;3.45;;;;;;;19.15;100.00;99580.19;4921665;29;20293;-54
2021/11/01 01:33:09;;;;;;;12.63;2.63;;;;;;;19.50;100.00;99577.44;4938982;29;20044;-52
2021/11/01 01:35:39;;;;;;;11.50;2.87;;;;;;;19.86;100.00;99570.84;4939446;29;20493;-54
2021/11/01 01:38:09;;;;;;;14.90;3.10;;;;;;;18.98;100.00;99567.06;4939178;29;20285;-52
2021/11/01 01:40:35;;;;;;;20.90;3.27;;;;;;;19.31;100.00;99570.03;4921683;29;20274;-51
2021/11/01 01:43:03;;;;;;;11.90;2.60;;;;;;;19.23;100.00;99576.06;4938684;29;20792;-50
2021/11/01 01:45:29;;;;;;;28.57;3.40;;;;;;;19.69;100.00;99561.25;4922070;29;20113;-53
2021/11/01 01:47:54;;;;;;;16.75;3.17;;;;;;;18.82;100.00;99558.22;4938831;29;20806;-54
2021/11/01 01:50:20;;;;;;;21.23;2.73;;;;;;;18.60;100.00;99564.84;4938506;29;20043;-55
2021/11/01 01:52:49;;;;;;;21.65;3.38;;;;;;;18.74;100.00;99554.22;4939262;29;20098;-57
2021/11/01 01:55:15;;;;;;;13.23;2.87;;;;;;;18.76;100.00;99535.78;4938551;29;20043;-56
2021/11/01 01:57:41;;;;;;;25.58;2.97;;;;;;;18.45;100.00;99557.66;4937397;29;20261;-51
2021/11/01 02:00:19;;;;;;;26.08;2.47;;;;;;;18.68;100.00;99549.88;4921480;29;20040;-53
2021/11/01 02:02:47;;;;;;;22.63;2.43;;;;;;;19.14;100.00;99556.06;4938261;29;20135;-55
2021/11/01 02:05:14;;;;;;;15.40;2.67;;;;;;;18.96;100.00;99555.66;4937082;29;20778;-51
2021/11/01 02:07:52;;;;;;;15.03;3.00;;;;;;;19.04;100.00;99557.00;4921479;29;20305;-55
2021/11/01 02:10:24;;;;;;;9.80;2.20;;;;;;;18.99;100.00;99540.75;4936985;29;20272;-50
2021/11/01 02:12:57;;;;;;;6.10;1.70;;;;;;;18.51;100.00;99550.28;4921788;29;20266;-51
2021/11/01 02:15:49;;;;;;;7.87;2.37;;;;;;;18.99;100.00;99533.47;4938100;29;20808;-50
2021/11/01 02:18:17;;;;;;;23.20;2.90;;;;;;;19.24;100.00;99545.16;4938261;29;20285;-52
2021/11/01 02:20:53;;;;;;;14.13;2.43;;;;;;;18.66;100.00;99527.72;4937971;29;20786;-52
2021/11/01 02:23:23;;;;;;;13.32;3.72;;;;;;;19.06;100.00;99533.94;4938390;29;20270;-54
2021/11/01 02:25:52;;;;;;;10.87;2.87;;;;;;;18.98;100.00;99537.25;4938457;29;20087;-53
2021/11/01 02:28:29;;;;;;;17.60;3.03;;;;;;;18.83;100.00;99534.63;4938296;29;20743;-50
2021/11/01 02:30:55;;;;;;;17.97;2.87;;;;;;;19.07;100.00;99526.63;4937046;29;20313;-53
2021/11/01 02:33:23;;;;;;;16.40;3.33;;;;;;;19.16;100.00;99526.81;4937827;29;20278;-53
2021/11/01 02:35:51;;;;;;;22.07;2.67;;;;;;;18.83;100.00;99518.38;4937575;29;20039;-50
2021/11/01 02:38:20;;;;;;;18.53;2.87;;;;;;;19.00;100.00;99512.56;4937936;29;20288;-50
2021/11/01 02:40:46;;;;;;;13.00;2.90;;;;;;;19.06;100.00;99514.97;4937267;29;20628;-52
2021/11/01 02:43:14;;;;;;;10.60;2.30;;;;;;;19.65;100.00;99516.03;4920971;29;20269;-50
2021/11/01 02:45:40;;;;;;;15.53;2.87;;;;;;;18.63;100.00;99514.75;4937575;29;20482;-54
2021/11/01 02:48:06;;;;;;;11.53;2.27;;;;;;;18.88;100.00;99519.16;4937641;29;20278;-54
2021/11/01 02:50:33;;;;;;;10.05;3.13;;;;;;;18.90;100.00;99526.97;4937669;29;20273;-54
2021/11/01 02:52:59;;;;;;;12.73;2.85;;;;;;;18.73;100.00;99522.81;4920587;29;20487;-53
2021/11/01 02:55:25;;;;;;;9.48;2.30;;;;;;;18.72;100.00;99523.06;4936143;29;20036;-56
2021/11/01 02:57:51;;;;;;;;;;;;;;;18.54;100.00;99549.72;4921825;29;20043;-53
2021/11/01 03:00:20;;;;;;;18.50;3.17;;;;;;;18.42;100.00;99539.22;4937564;29;19914;-52
2021/11/01 03:02:47;;;;;;;12.97;2.60;;;;;;;18.54;100.00;99544.31;4937101;29;20275;-50
2021/11/01 03:05:16;;;;;;;16.90;3.08;;;;;;;18.84;100.00;99520.00;4937107;29;20346;-56
2021/11/01 03:07:44;;;;;;;10.70;2.70;;;;;;;18.97;100.00;99524.78;4920184;29;20035;-53
2021/11/01 03:10:11;;;;;;;14.40;2.50;;;;;;;18.97;100.00;99526.66;4937277;29;20324;-56
2021/11/01 03:12:43;;;;;;;10.90;1.87;;;;;;;18.58;100.00;99523.72;4920507;29;20294;-57
2021/11/01 03:15:12;;;;;;;14.53;2.30;;;;;;;18.97;100.00;99530.19;4937502;29;20321;-54
2021/11/01 03:17:44;;;;;;;21.50;3.37;;;;;;;18.98;100.00;99525.56;4937548;29;20262;-52
2021/11/01 03:20:15;;;;;;;15.70;2.70;;;;;;;18.60;100.00;99523.44;4936844;29;20352;-53
2021/11/01 03:23:25;;;;;;;14.50;2.90;;;;;;;19.01;100.00;99538.56;4920696;29;20752;-51
2021/11/01 03:25:58;;;;;;;10.97;3.10;;;;;;;18.72;100.00;99537.44;4937428;29;20294;-53
2021/11/01 03:28:25;;;;;;;15.67;2.40;;;;;;;18.85;100.00;99524.31;4921124;29;20282;-53
2021/11/01 03:30:56;;;;;;;13.63;2.20;;;;;;;18.60;100.00;99539.66;4936980;29;20369;-53
2021/11/01 03:33:22;;;;;;;10.60;3.33;;;;;;;18.94;100.00;99538.91;4937232;29;20275;-49
2021/11/01 03:35:49;;;;;;;21.27;3.83;;;;;;;18.82;100.00;99530.31;4919845;29;20266;-51
2021/11/01 03:38:14;;;;;;;13.38;2.42;;;;;;;19.01;100.00;99536.69;4936909;29;20040;-55
2021/11/01 03:40:45;;;;;;;15.98;3.00;;;;;;;18.88;100.00;99538.13;4937175;29;20043;-50
2021/11/01 03:43:11;;;;;;;10.80;2.83;;;;;;;18.89;100.00;99538.91;4937146;29;20111;-51
2021/11/01 03:45:38;;;;;;;13.02;2.45;;;;;;;19.02;100.00;99534.78;4919733;29;20369;-53
2021/11/01 03:48:04;;;;;;;8.27;2.13;;;;;;;18.67;100.00;99531.25;4920427;29;20048;-53
2021/11/01 03:50:42;;;;;;;12.63;3.17;;;;;;;19.31;100.00;99539.41;4937168;29;20286;-53
2021/11/01 03:53:08;;;;;;;14.80;3.50;;;;;;;18.76;100.00;99538.47;4905754;29;20278;-54
2021/11/01 03:55:34;;;;;;;17.58;2.85;;;;;;;18.30;100.00;99520.63;4919946;29;20258;-52
2021/11/01 03:58:00;;;;;;;12.43;2.97;;;;;;;18.47;100.00;99531.09;4919823;29;20105;-57
2021/11/01 04:00:30;;;;;;;18.20;2.77;;;;;;;18.52;100.00;99551.91;4919791;29;20501;-53
2021/11/01 04:02:57;;;;;;;13.30;2.50;;;;;;;18.57;100.00;99527.53;4920640;29;20373;-54
2021/11/01 04:05:23;;;;;;;16.57;3.13;;;;;;;18.62;100.00;99521.25;4935811;29;20365;-52
2021/11/01 04:07:49;;;;;;;15.63;2.78;;;;;;;19.00;100.00;99526.94;4936212;29;20340;-53
2021/11/01 04:10:14;;;;;;;14.50;2.42;;;;;;;18.80;100.00;99543.31;4904206;29;20126;-51
2021/11/01 04:12:42;;;;;;;15.40;2.53;;;;;;;18.79;100.00;99520.84;4919945;29;20074;-55
2021/11/01 04:15:12;;;;;;;15.03;2.53;;;;;;;18.42;100.00;99536.53;4920453;29;20744;-54
2021/11/01 04:17:45;;;;;;;15.10;2.97;;;;;;;18.81;100.00;99521.41;4937440;29;20281;-52
2021/11/01 04:22:43;;;;;;;20.57;3.93;;;;;;;18.60;100.00;99528.84;4939198;29;20329;-53
2021/11/01 04:25:09;;;;;;;17.40;3.43;;;;;;;18.65;100.00;99531.50;4921225;29;20289;-53
2021/11/01 04:27:36;;;;;;;13.98;2.67;;;;;;;18.60;100.00;99539.66;4921193;29;20294;-54
2021/11/01 04:30:05;;;;;;;18.87;3.50;;;;;;;18.66;100.00;99535.03;4936939;29;20119;-53
2021/11/01 04:32:42;;;;;;;13.63;2.40;;;;;;;18.47;100.00;99543.81;4937012;29;20787;-50
2021/11/01 04:37:36;;;;;;;13.52;2.35;;;;;;;18.94;100.00;99522.66;4935926;29;19918;-57
2021/11/01 04:40:30;;;;;;;19.43;2.77;;;;;;;18.33;100.00;99527.38;4936944;29;20114;-58
2021/11/01 04:43:22;;;;;;;15.48;3.33;;;;;;;18.49;100.00;99518.09;4922241;29;20304;-55
2021/11/01 04:53:58;;;;;;;20.47;2.50;;;;;;;18.80;100.00;99521.66;4935182;29;20750;-53
2021/11/01 04:56:25;;;;;;;24.70;3.00;;;;;;;18.68;100.00;99528.22;4936682;29;20289;-50
2021/11/01 04:58:55;;;;;;;17.87;3.33;;;;;;;18.37;100.00;99528.44;4935411;29;20493;-53
2021/11/01 05:01:25;;;;;;;16.47;2.80;;;;;;;18.61;100.00;99501.50;4936460;29;20274;-50
2021/11/01 05:03:53;;;;;;;13.23;2.60;;;;;;;18.27;100.00;99518.47;4936638;29;20293;-51
2021/11/01 05:06:23;;;;;;;8.07;1.83;;;;;;;18.87;100.00;99522.13;4935911;29;20328;-49
2021/11/01 05:09:06;;;;;;;12.70;3.87;;;;;;;18.47;100.00;99505.91;4935683;29;20872;-52
2021/11/01 05:11:35;;;;;;;14.60;2.47;;;;;;;18.71;100.00;99518.75;4936142;29;20337;-53
2021/11/01 05:14:01;;;;;;;16.87;2.87;;;;;;;18.58;100.00;99518.31;4935798;29;20286;-52
2021/11/01 05:21:46;;;;;;;16.93;3.10;;;;;;;18.97;100.00;99538.31;4935861;29;20313;-54
2021/11/01 05:24:22;;;;;;;7.13;2.37;;;;;;;18.56;100.00;99514.25;4936036;29;20325;-50
2021/11/01 05:27:10;;;;;;;20.73;3.53;;;;;;;18.67;100.00;99537.44;4918155;29;20309;-50
2021/11/01 05:29:35;;;;;;;22.92;2.63;;;;;;;18.51;100.00;99533.25;4935448;29;20066;-50
2021/11/01 05:32:12;;;;;;;11.20;2.85;;;;;;;18.72;100.00;99513.06;4935400;29;20040;-49
2021/11/01 05:34:38;;;;;;;11.55;2.67;;;;;;;18.69;100.00;99513.63;4935488;29;20047;-51
2021/11/01 05:37:04;;;;;;;17.67;4.37;;;;;;;18.91;100.00;99524.00;4935434;29;20066;-50
2021/11/01 05:39:29;;;;;;;13.55;2.30;;;;;;;18.46;100.00;99534.06;4935173;29;20204;-50
2021/11/01 05:41:55;;;;;;;20.48;3.88;;;;;;;18.47;100.00;99525.69;4935513;29;20375;-51
2021/11/01 05:44:20;;;;;;;12.27;2.87;;;;;;;18.34;100.00;99543.34;4937858;29;20067;-53
2021/11/01 05:46:50;;;;;;;7.57;2.50;;;;;;;18.76;100.00;99541.19;4938890;29;20130;-54
2021/11/01 05:49:17;;;;;;;14.33;3.40;;;;;;;18.64;100.00;99538.00;4939090;29;20055;-56
2021/11/01 05:51:43;;;;;;;12.23;2.57;;;;;;;18.56;100.00;99552.16;4939522;29;20282;-49
2021/11/01 05:54:13;;;;;;;19.05;4.35;;;;;;;18.11;100.00;99558.34;4939544;29;20720;-55
2021/11/01 06:07:21;;;;;;;31.60;6.03;;;;;;;18.83;100.00;99556.31;4938555;29;20285;-51
2021/11/01 06:09:56;;;;;;;15.57;3.80;;;;;;;18.92;100.00;99554.63;4938220;29;20729;-50
2021/11/01 06:15:06;;;;;;;16.40;4.17;;;;;;;18.48;100.00;99573.31;4938176;29;20780;-50
2021/11/01 06:17:32;;;;;;;;;;;;;;;18.23;100.00;99570.75;4937600;29;20372;-52
2021/11/01 06:19:58;;;;;;;12.77;3.13;;;;;;;18.44;100.00;99566.81;4936766;29;19955;-51
2021/11/01 06:22:24;;;;;;;13.57;2.47;;;;;;;19.14;100.00;99570.44;4938061;29;20062;-48
2021/11/01 06:27:17;;;;;;;17.30;3.63;;;;;;;19.81;100.00;99579.84;4938023;29;20068;-50
2021/11/01 06:40:57;;;;;;;16.40;3.57;;;;;;;18.85;100.00;99582.03;4879254;29;20810;-50
2021/11/01 06:43:32;;;;;;;17.40;3.47;;;;;;;18.51;100.00;99587.38;4904615;29;20289;-50
2021/11/01 06:54:49;;;;;;;22.53;4.13;;;;;;;18.47;100.00;99598.78;4897269;29;20295;-50
2021/11/01 06:57:21;;;;;;;18.27;3.47;;;;;;;18.49;100.00;99599.31;4920353;29;20367;-51
2021/11/01 07:16:22;;;;;;;11.03;2.13;;;;;;;18.59;100.00;99622.81;4937255;29;20306;-51
2021/11/01 09:22:51;;;;;;;12.95;2.85;;;;;;;22.63;59.69;99661.06;4939490;29;20471;-54
2021/11/01 09:28:02;;;;;;;9.13;2.80;;;;;;;22.71;57.21;99724.94;4939545;29;20281;-50
2021/11/01 09:41:26;;;;;;;14.77;3.80;;;;;;;24.64;48.47;99678.16;4937587;29;20043;-55
2021/11/01 09:43:53;;;;;;;11.97;3.90;;;;;;;23.54;49.65;99663.09;4938794;29;20032;-54
2021/11/01 09:46:22;;;;;;;8.57;2.83;;;;;;;23.65;50.52;99665.56;4938688;29;20085;-56
2021/11/01 09:48:52;;;;;;;9.73;2.67;;;;;;;24.08;48.76;99675.94;4937489;29;20044;-55
2021/11/01 09:51:18;;;;;;;11.87;2.53;;;;;;;23.85;48.69;99666.94;4938940;29;20039;-56
2021/11/01 09:53:47;;;;;;;12.35;2.80;;;;;;;25.50;44.57;99674.22;4922236;29;20044;-55
2021/11/01 10:01:33;;;;;;;6.10;1.95;;;;;;;24.96;44.58;99719.91;4940754;29;20378;-55
2021/11/01 10:03:59;;;;;;;;;;;;;;;23.65;47.79;99695.59;4925456;29;20190;-53
2021/11/01 10:06:27;;;;;;;12.43;2.30;;;;;;;24.11;48.04;99688.16;4939525;29;19974;-53
2021/11/01 10:08:56;;;;;;;10.80;3.60;;;;;;;24.61;47.19;99717.06;4938600;29;20051;-51
2021/11/01 10:11:25;;;;;;;10.93;1.93;;;;;;;23.29;50.18;99706.25;4938595;29;20040;-56
2021/11/01 10:14:02;;;;;;;7.97;1.97;;;;;;;23.14;50.39;99731.91;4938259;29;20103;-51
2021/11/01 10:19:30;;;;;;;10.37;2.00;;;;;;;22.58;55.12;99679.44;4938262;29;20405;-52
2021/11/01 10:21:59;;;;;;;17.63;2.73;;;;;;;22.90;54.71;99691.31;4938946;29;20270;-56
2021/11/01 10:24:40;;;;;;;12.13;2.70;;;;;;;24.13;51.54;99689.44;4940419;29;20347;-56
2021/11/01 10:27:08;;;;;;;12.97;2.60;;;;;;;23.89;51.17;99685.13;4924805;29;20367;-53
2021/11/01 10:29:47;;;;;;;9.33;2.13;;;;;;;24.54;47.40;99703.06;4937732;29;20274;-54
2021/11/01 10:32:13;;;;;;;7.57;2.30;;;;;;;25.00;45.12;99734.53;4938530;29;20067;-56
2021/11/01 10:34:38;;;;;;;4.95;1.75;;;;;;;25.31;43.15;99678.06;4920819;29;20075;-53
2021/11/01 10:37:11;;;;;;;6.53;2.00;;;;;;;25.22;42.59;99678.06;4937575;29;20039;-55
2021/11/01 10:39:37;;;;;;;7.17;1.80;;;;;;;25.48;43.18;99682.75;4936601;29;20139;-54
2021/11/01 10:58:20;;;;;;;5.10;1.53;;;;;;;25.50;40.88;99710.59;4937370;29;20039;-55
2021/11/01 11:14:24;;;;;;;7.50;1.80;;;;;;;26.91;35.99;99694.41;4936003;29;20039;-56
2021/11/01 11:49:10;;;;;;;7.63;2.33;;;;;;;26.12;39.31;99707.69;4937344;29;20127;-55
2021/11/01 11:51:40;;;;;;;11.80;2.40;;;;;;;26.90;37.49;99701.03;4937524;29;20078;-57
2021/11/01 11:54:08;;;;;;;7.70;2.00;;;;;;;26.88;37.10;99692.34;4935348;29;20036;-55
2021/11/01 11:56:39;;;;;;;5.53;2.00;;;;;;;26.99;35.80;99676.28;4937128;29;20046;-55
2021/11/01 11:59:11;;;;;;;9.93;1.70;;;;;;;27.57;35.81;99691.28;4936977;29;20043;-51
2021/11/01 12:01:42;;;;;;;10.50;2.43;;;;;;;25.92;38.01;99699.88;4919715;29;20039;-54
2021/11/01 12:04:26;;;;;;;6.43;1.60;;;;;;;25.80;38.81;99686.03;4936420;29;20068;-55
2021/11/01 12:06:58;;;;;;;8.17;2.10;;;;;;;25.43;39.49;99691.09;4937264;29;20047;-54
2021/11/01 12:09:27;;;;;;;13.00;2.47;;;;;;;26.11;38.61;99689.66;4936805;29;20032;-52
2021/11/01 12:17:24;;;;;;;3.83;1.67;;;;;;;26.41;37.42;99695.97;4935743;29;20040;-54
2021/11/01 12:19:53;;;;;;;7.20;1.73;;;;;;;26.91;35.50;99699.09;4920163;29;20040;-55
2021/11/01 12:22:30;;;;;;;11.35;2.08;;;;;;;28.19;34.13;99696.91;4935757;29;20354;-55
2021/11/01 12:25:02;;;;;;;14.10;2.17;;;;;;;26.05;36.92;99672.59;4935916;29;20090;-56
2021/11/01 12:27:30;;;;;;;9.77;2.40;;;;;;;26.95;35.93;99686.31;4936731;29;20043;-56
2021/11/01 12:30:10;;;;;;;8.33;2.17;;;;;;;27.13;35.37;99697.13;4920698;29;20062;-56
2021/11/01 12:32:38;;;;;;;10.17;1.80;;;;;;;27.90;35.41;99658.25;4935032;29;20099;-56
2021/11/01 12:37:41;;;;;;;9.73;2.17;;;;;;;27.56;34.61;99676.75;4936304;29;20040;-56
2021/11/01 12:48:31;;;;;;;10.03;2.33;;;;;;;28.90;32.82;99683.00;4935615;29;20090;-54
2021/11/01 12:57:14;;;;;;;7.90;1.97;;;;;;;28.63;32.31;99669.59;4943507;29;20063;-54
2021/11/01 12:59:43;;;;;;;10.03;2.20;;;;;;;28.34;33.14;99682.47;4942701;29;20039;-53
2021/11/01 13:02:19;;;;;;;11.13;3.00;;;;;;;28.23;33.16;99677.78;4924966;29;20035;-53
2021/11/01 13:04:49;;;;;;;5.07;1.92;;;;;;;28.74;33.19;99677.38;4941534;29;20067;-55
2021/11/01 13:10:13;;;;;;;7.13;1.80;;;;;;;28.92;32.50;99675.19;4942096;29;20062;-53
2021/11/01 13:18:11;;;;;;;11.20;2.20;;;;;;;28.08;32.65;99679.25;4941970;29;20047;-51
2021/11/01 13:20:43;;;;;;;7.27;2.13;;;;;;;28.17;32.89;99675.28;4942453;29;20039;-50
2021/11/01 13:23:10;;;;;;;10.30;2.10;;;;;;;28.18;32.64;99667.81;4942069;29;20071;-55
2021/11/01 13:36:48;;;;;;;9.87;1.50;;;;;;;30.34;29.78;99665.88;4941332;29;20118;-53
2021/11/01 13:39:30;;;;;;;5.93;2.13;;;;;;;29.58;30.50;99664.00;4940300;29;20047;-55
2021/11/01 13:41:56;;;;;;;9.83;2.30;;;;;;;28.66;31.45;99657.13;4925028;29;20077;-55
2021/11/01 13:44:26;;;;;;;6.10;1.40;;;;;;;27.30;33.63;99658.56;4941253;29;20036;-54
2021/11/01 13:47:03;;;;;;;6.07;1.67;;;;;;;26.72;34.56;99667.41;4941948;29;20071;-52
2021/11/01 13:49:32;;;;;;;7.03;1.80;;;;;;;25.87;36.16;99664.47;4941612;29;20054;-52
2021/11/01 13:52:24;;;;;;;18.67;2.73;;;;;;;26.44;36.00;99665.16;4924436;29;20043;-52
2021/11/01 13:55:06;;;;;;;6.77;1.67;;;;;;;28.05;33.61;99666.97;4941406;29;20549;-54
2021/11/01 13:57:42;;;;;;;6.17;2.17;;;;;;;27.98;33.25;99661.25;4924591;29;20086;-54
2021/11/01 14:00:40;;;;;;;7.80;2.13;;;;;;;26.76;35.12;99671.09;4941901;29;20043;-53
2021/11/01 14:17:01;;;;;;;10.77;2.13;;;;;;;24.17;41.00;99665.81;4938720;29;20043;-51
2021/11/01 14:19:50;;;;;;;8.07;2.70;;;;;;;24.47;41.35;99677.03;4938594;29;20398;-51
2021/11/01 14:28:02;;;;;;;8.10;2.33;;;;;;;23.90;42.14;99662.16;4937431;29;20040;-55
2021/11/01 15:23:10;;;;;;;11.63;2.08;;;;;;;23.69;43.92;99655.63;4937692;29;20035;-54
2021/11/01 15:34:15;;;;;;;8.40;2.00;;;;;;;23.94;45.20;99651.44;4937076;29;20277;-55
2021/11/01 16:19:41;;;;;;;3.13;1.23;;;;;;;21.04;100.00;99690.78;4935380;29;20601;-57
2021/11/01 16:22:10;;;;;;;8.43;1.73;;;;;;;19.70;100.00;99700.38;4935653;29;20079;-52
2021/11/01 16:24:36;;;;;;;21.93;2.83;;;;;;;20.17;100.00;99701.59;4936919;29;20293;-54
2021/11/01 16:27:03;;;;;;;3.55;2.05;;;;;;;20.29;100.00;99694.94;4935992;29;20285;-52
2021/11/01 16:32:13;;;;;;;3.97;2.80;;;;;;;20.61;100.00;99685.34;4936084;29;20134;-55
2021/11/01 16:34:40;;;;;;;6.10;2.67;;;;;;;20.54;100.00;99682.19;4935991;29;20274;-52
2021/11/01 16:39:48;;;;;;;7.63;2.73;;;;;;;20.12;100.00;99693.50;4942465;29;20289;-55
2021/11/01 16:42:23;;;;;;;4.03;2.43;;;;;;;19.77;100.00;99692.72;4940607;29;20266;-55
2021/11/01 16:44:49;;;;;;;5.43;2.70;;;;;;;20.45;100.00;99688.25;4937759;29;20280;-50
2021/11/01 16:47:17;;;;;;;4.63;2.63;;;;;;;20.15;100.00;99679.34;4903554;29;20274;-55
2021/11/01 16:49:43;;;;;;;7.43;3.00;;;;;;;20.13;100.00;99676.13;4934556;29;20040;-54
2021/11/01 16:52:15;;;;;;;;;;;;;;;20.18;100.00;99680.66;4936717;29;20345;-54
2021/11/01 16:54:42;;;;;;;4.40;2.17;;;;;;;19.83;100.00;99682.63;4936202;29;19918;-56
2021/11/01 16:57:17;;;;;;;4.57;2.53;;;;;;;19.90;100.00;99666.81;4917812;29;20270;-50
2021/11/01 16:59:52;;;;;;;8.67;2.40;;;;;;;20.04;100.00;99672.41;4935758;29;20277;-51
2021/11/01 17:05:38;;;;;;;7.53;3.83;;;;;;;19.28;100.00;99673.59;4935747;29;20352;-53
2021/11/01 17:27:29;;;;;;;23.63;10.67;;;;;;;20.49;100.00;99704.78;4918813;29;20296;-55
2021/11/01 17:29:35;;;;;;;;;;;;;;;19.73;100.00;99707.94;4923007;29;20373;-51
2021/11/01 18:51:33;;;;;;;10.82;4.65;;;;;;;18.28;100.00;99754.72;4937118;29;20055;-51
2021/11/01 18:54:10;;;;;;;13.43;4.97;;;;;;;18.46;100.00;99754.16;4938235;29;20051;-56
2021/11/01 18:56:39;;;;;;;6.18;3.22;;;;;;;18.70;100.00;99753.53;4936588;29;20043;-49
2021/11/01 18:59:07;;;;;;;8.10;3.70;;;;;;;19.21;100.00;99754.41;4937820;29;20040;-52
2021/11/01 19:01:35;;;;;;;11.60;3.92;;;;;;;18.88;100.00;99749.41;4937401;29;20289;-54
2021/11/01 19:04:04;;;;;;;4.83;3.00;;;;;;;18.58;100.00;99743.03;4920654;29;20039;-52
2021/11/01 20:02:54;;;;;;;5.07;2.55;;;;;;;18.57;100.00;99764.94;4922239;29;20040;-54
2021/11/01 20:04:51;;;;;;;7.68;4.40;;;;;;;18.12;100.00;99770.97;4936520;29;20039;-54
2021/11/01 20:12:49;;;;;;;7.60;4.32;;;;;;;18.26;100.00;99760.41;4937723;29;20043;-54
2021/11/01 20:15:53;;;;;;;17.13;5.45;;;;;;;18.65;100.00;99763.56;4936397;29;20067;-52
2021/11/01 21:24:50;;;;;;;10.68;5.05;;;;;;;18.85;100.00;99766.22;4925257;29;20122;-54
2021/11/01 21:27:22;;;;;;;9.07;5.10;;;;;;;18.42;100.00;99763.88;4922160;29;20105;-53
2021/11/01 21:29:49;;;;;;;11.07;5.20;;;;;;;18.36;100.00;99759.56;4938102;29;20044;-55
2021/11/01 21:32:15;;;;;;;10.38;4.85;;;;;;;18.24;100.00;99765.28;4938918;29;20095;-55
2021/11/01 21:34:55;;;;;;;10.07;5.33;;;;;;;18.10;100.00;99775.84;4939466;29;20457;-54
2021/11/01 21:37:21;;;;;;;8.90;4.93;;;;;;;18.14;100.00;99768.00;4938414;29;20051;-52
2021/11/01 21:39:46;;;;;;;13.85;5.28;;;;;;;17.83;100.00;99766.09;4938045;29;20038;-53
2021/11/01 21:42:12;;;;;;;10.38;5.22;;;;;;;18.12;100.00;99776.38;4938981;29;20126;-57
2021/11/01 21:44:39;;;;;;;10.70;5.17;;;;;;;18.11;100.00;99768.56;4922936;29;20060;-54
2021/11/01 21:47:05;;;;;;;12.50;5.20;;;;;;;18.01;100.00;99763.94;4921894;29;20020;-56
2021/11/01 21:49:31;;;;;;;10.75;5.53;;;;;;;18.53;100.00;99759.25;4938971;29;20051;-52
2021/11/01 21:51:57;;;;;;;11.65;6.50;;;;;;;17.74;100.00;99759.59;4938696;29;20036;-53
2021/11/01 21:54:35;;;;;;;10.27;5.18;;;;;;;17.69;100.00;99751.47;4921969;29;20122;-57
2021/11/01 21:57:08;;;;;;;7.82;4.75;;;;;;;17.86;100.00;99757.44;4939279;29;20052;-55
2021/11/01 22:21:01;;;;;;;12.05;5.45;;;;;;;17.59;100.00;99734.19;4938650;29;20123;-53
2021/11/01 22:23:37;;;;;;;9.13;5.07;;;;;;;17.13;100.00;99736.81;4922017;29;20043;-51
2021/11/01 22:34:16;;;;;;;15.20;6.63;;;;;;;17.11;100.00;99739.75;4938030;29;20067;-53
2021/11/01 22:55:38;;;;;;;12.10;4.70;;;;;;;17.62;100.00;99730.94;4922179;29;20055;-53
2021/11/01 22:58:05;;;;;;;11.27;5.50;;;;;;;17.89;100.00;99740.66;4922349;29;20058;-50
2021/11/01 23:00:35;;;;;;;11.63;5.35;;;;;;;17.56;100.00;99733.91;4936576;29;20046;-55
2021/11/01 23:03:07;;;;;;;12.38;5.28;;;;;;;17.50;100.00;99733.06;4938849;29;20499;-53
2021/11/01 23:33:12;;;;;;;25.98;12.80;;;;;;;16.42;100.00;99738.91;4936930;29;20139;-49
2021/11/01 23:35:38;;;;;;;31.13;14.73;;;;;;;16.26;100.00;99735.31;4935668;29;20052;-56
2021/11/01 23:38:04;;;;;;;25.17;12.32;;;;;;;16.45;100.00;99741.09;4936505;29;20040;-54
2021/11/01 23:40:30;;;;;;;28.50;11.52;;;;;;;16.39;100.00;99732.19;4936863;29;20043;-55
2021/11/01 23:42:55;;;;;;;29.33;11.38;;;;;;;16.49;100.00;99732.22;4935546;29;20118;-53
2021/11/01 23:45:21;;;;;;;25.17;10.57;;;;;;;16.44;100.00;99723.28;4936503;29;20036;-50
2021/11/01 23:47:46;;;;;;;26.13;10.65;;;;;;;17.03;100.00;99719.47;4919893;29;20278;-50
2021/11/01 23:50:12;;;;;;;23.00;10.27;;;;;;;17.00;100.00;99724.63;4919557;29;20414;-53
2021/11/01 23:52:42;;;;;;;21.10;9.07;;;;;;;16.98;100.00;99726.75;4935373;29;20055;-53
2021/11/01 23:55:09;;;;;;;22.60;8.63;;;;;;;16.79;100.00;99729.91;4937616;29;20281;-53
2021/11/01 23:57:34;;;;;;;;;;;;;;;16.66;100.00;99730.41;4936978;29;20046;-52
